createdAt,value
2018-11-13T00:00:01.107Z,12.4
2018-11-13T00:01:13.306Z,12.4
2018-11-13T00:02:25.579Z,12.4
2018-11-13T00:03:37.713Z,12.4
2018-11-13T00:04:49.806Z,12.4
2018-11-13T00:06:02.078Z,12.5
2018-11-13T00:07:14.283Z,12.5
2018-11-13T00:08:26.459Z,12.5
2018-11-13T00:09:38.646Z,12.5
2018-11-13T00:10:50.837Z,12.5
2018-11-13T00:12:03.053Z,12.5
2018-11-13T00:14:27.451Z,12.5
2018-11-13T00:16:51.829Z,12.5
2018-11-13T00:18:03.925Z,12.6
2018-11-13T00:19:16.128Z,12.6
2018-11-13T00:20:28.464Z,12.6
2018-11-13T00:21:40.586Z,12.6
2018-11-13T00:22:52.797Z,12.6
2018-11-13T00:24:04.974Z,12.5
2018-11-13T00:25:17.109Z,12.4
2018-11-13T00:26:29.365Z,12.3
2018-11-13T00:27:41.556Z,12.3
2018-11-13T00:28:53.671Z,12.3
2018-11-13T00:30:05.986Z,12.3
2018-11-13T00:32:30.334Z,12.3
2018-11-13T00:33:42.525Z,12.3
2018-11-13T00:34:54.718Z,12.3
2018-11-13T00:36:06.905Z,12.3
2018-11-13T00:37:19.104Z,12.3
2018-11-13T00:38:31.299Z,12.3
2018-11-13T00:39:43.521Z,12.3
2018-11-13T00:40:55.617Z,12.3
2018-11-13T00:42:07.928Z,12.3
2018-11-13T00:43:20.073Z,12.3
2018-11-13T00:44:32.261Z,12.3
2018-11-13T00:49:21.051Z,12.4
2018-11-13T00:51:45.441Z,12.4
2018-11-13T00:52:57.555Z,12.3
2018-11-13T00:54:09.812Z,12.4
2018-11-13T00:56:34.204Z,12.3
2018-11-13T00:57:46.392Z,12.3
2018-11-13T00:58:58.592Z,12.3
2018-11-13T01:00:10.784Z,12.3
2018-11-13T01:01:22.976Z,12.3
2018-11-13T01:02:35.103Z,12.3
2018-11-13T01:03:47.369Z,12.3
2018-11-13T01:04:59.481Z,12.3
2018-11-13T01:06:11.759Z,12.2
2018-11-13T01:08:36.169Z,12.2
2018-11-13T01:09:48.342Z,12.2
2018-11-13T01:11:00.525Z,12.2
2018-11-13T01:12:12.726Z,12.2
2018-11-13T01:13:24.943Z,12.2
2018-11-13T01:14:37.108Z,12.2
2018-11-13T01:15:49.305Z,12.2
2018-11-13T01:18:13.732Z,12.2
2018-11-13T01:19:25.879Z,12.2
2018-11-13T01:20:38.073Z,12.2
2018-11-13T01:21:50.274Z,12.2
2018-11-13T01:23:02.472Z,12.2
2018-11-13T01:25:26.865Z,12.1
2018-11-13T01:26:39.055Z,12.1
2018-11-13T01:29:03.441Z,12.1
2018-11-13T01:31:27.852Z,12.1
2018-11-13T01:32:39.944Z,12.2
2018-11-13T01:33:52.207Z,12.2
2018-11-13T01:35:04.399Z,12.2
2018-11-13T01:36:16.608Z,12.2
2018-11-13T01:39:53.171Z,12.1
2018-11-13T01:41:05.371Z,12.1
2018-11-13T01:42:17.573Z,12.1
2018-11-13T01:44:41.961Z,12.1
2018-11-13T01:45:54.140Z,12.1
2018-11-13T01:47:06.259Z,12.1
2018-11-13T01:48:18.546Z,12.1
2018-11-13T01:50:42.915Z,12.1
2018-11-13T01:51:55.740Z,12.1
2018-11-13T01:53:07.313Z,12.1
2018-11-13T01:55:31.720Z,12.2
2018-11-13T01:56:43.889Z,12.3
2018-11-13T01:57:56.073Z,12.3
2018-11-13T01:59:08.267Z,12.3
2018-11-13T02:00:20.468Z,12.3
2018-11-13T02:02:44.874Z,12.3
2018-11-13T02:03:57.054Z,12.4
2018-11-13T02:05:09.236Z,12.7
2018-11-13T02:06:21.429Z,12.8
2018-11-13T02:07:33.635Z,12.9
2018-11-13T02:08:45.819Z,12.8
2018-11-13T02:09:59.289Z,12.8
2018-11-13T02:12:22.424Z,12.8
2018-11-13T02:13:34.595Z,12.9
2018-11-13T02:14:46.791Z,12.9
2018-11-13T02:15:58.908Z,12.9
2018-11-13T02:18:23.371Z,12.9
2018-11-13T02:20:47.756Z,13
2018-11-13T02:21:59.954Z,13
2018-11-13T02:24:24.263Z,13
2018-11-13T02:25:36.468Z,13
2018-11-13T02:29:13.147Z,13.1
2018-11-13T02:30:25.233Z,13.1
2018-11-13T02:31:37.501Z,13.2
2018-11-13T02:32:49.699Z,13.2
2018-11-13T02:34:01.887Z,13.2
2018-11-13T02:35:14.085Z,13.2
2018-11-13T02:37:38.469Z,13.2
2018-11-13T02:38:50.660Z,13.2
2018-11-13T02:40:02.859Z,13.2
2018-11-13T02:41:15.065Z,13.2
2018-11-13T02:42:27.310Z,13.3
2018-11-13T02:44:51.561Z,13.3
2018-11-13T02:48:28.230Z,13.2
2018-11-13T02:49:40.445Z,13.2
2018-11-13T02:50:52.602Z,13.2
2018-11-13T02:53:16.995Z,13.1
2018-11-13T02:54:29.188Z,13.1
2018-11-13T02:55:41.376Z,13.1
2018-11-13T02:56:53.566Z,13.2
2018-11-13T02:58:05.771Z,13.2
2018-11-13T02:59:17.960Z,13.2
2018-11-13T03:00:30.160Z,13.3
2018-11-13T03:01:42.274Z,13.3
2018-11-13T03:02:54.540Z,13.3
2018-11-13T03:04:06.733Z,13.3
2018-11-13T03:05:18.932Z,13.4
2018-11-13T03:06:31.143Z,13.4
2018-11-13T03:07:43.264Z,13.4
2018-11-13T03:08:55.435Z,13.4
2018-11-13T03:10:07.700Z,13.4
2018-11-13T03:11:19.825Z,13.4
2018-11-13T03:29:22.851Z,12.7
2018-11-13T03:31:47.201Z,12.7
2018-11-13T03:32:59.310Z,12.7
2018-11-13T03:34:11.590Z,12.6
2018-11-13T03:35:23.770Z,12.6
2018-11-13T03:36:35.897Z,12.5
2018-11-13T03:39:00.382Z,12.4
2018-11-13T03:40:12.545Z,12.4
2018-11-13T03:42:36.937Z,12.4
2018-11-13T03:43:49.129Z,12.3
2018-11-13T03:45:01.361Z,12.3
2018-11-13T03:46:13.515Z,12.3
2018-11-13T03:47:25.707Z,12.3
2018-11-13T03:48:37.830Z,12.4
2018-11-13T03:49:50.099Z,12.4
2018-11-13T03:51:02.291Z,12.4
2018-11-13T03:52:14.486Z,12.4
2018-11-13T03:53:26.692Z,12.4
2018-11-13T03:54:38.815Z,12.4
2018-11-13T03:57:03.271Z,12.4
2018-11-13T03:58:15.471Z,12.4
2018-11-13T03:59:27.758Z,12.4
2018-11-13T04:00:39.861Z,12.3
2018-11-13T04:01:52.033Z,12.3
2018-11-13T04:04:16.430Z,12.3
2018-11-13T04:05:28.554Z,12.3
2018-11-13T04:06:40.743Z,12.3
2018-11-13T04:07:52.930Z,12.2
2018-11-13T04:09:05.195Z,12.2
2018-11-13T04:10:17.395Z,12.2
2018-11-13T04:12:41.780Z,12.2
2018-11-13T04:15:06.181Z,12.2
2018-11-13T04:16:18.376Z,12.2
2018-11-13T04:18:43.493Z,12.2
2018-11-13T04:19:54.943Z,12.2
2018-11-13T04:21:07.155Z,12.2
2018-11-13T04:22:19.255Z,12.2
2018-11-13T04:24:43.746Z,12.2
2018-11-13T04:25:55.909Z,12.2
2018-11-13T04:28:20.316Z,12.2
2018-11-13T04:30:44.682Z,12.2
2018-11-13T04:33:09.124Z,12.1
2018-11-13T04:34:21.604Z,12.1
2018-11-13T04:35:33.391Z,12.1
2018-11-13T04:36:45.658Z,12.2
2018-11-13T04:37:57.843Z,12.2
2018-11-13T04:39:09.972Z,12.2
2018-11-13T04:40:22.243Z,12.2
2018-11-13T04:41:34.352Z,12.2
2018-11-13T04:42:46.557Z,12.1
2018-11-13T04:43:58.817Z,12.1
2018-11-13T04:45:11.006Z,12.1
2018-11-13T04:46:23.222Z,12.1
2018-11-13T04:48:47.605Z,12.1
2018-11-13T04:51:11.983Z,12
2018-11-13T04:52:24.097Z,12
2018-11-13T04:54:48.562Z,12
2018-11-13T04:56:00.753Z,12
2018-11-13T04:57:12.888Z,12
2018-11-13T04:58:25.171Z,12
2018-11-13T05:02:01.725Z,12
2018-11-13T05:03:13.933Z,11.9
2018-11-13T05:04:26.123Z,11.9
2018-11-13T05:05:38.234Z,11.9
2018-11-13T05:08:02.719Z,11.9
2018-11-13T05:09:14.911Z,11.9
2018-11-13T05:10:27.077Z,11.9
2018-11-13T05:12:51.473Z,11.9
2018-11-13T05:14:03.681Z,11.9
2018-11-13T05:15:15.857Z,11.9
2018-11-13T05:16:27.975Z,11.8
2018-11-13T05:17:40.168Z,11.8
2018-11-13T05:18:52.368Z,11.8
2018-11-13T05:20:04.660Z,11.8
2018-11-13T05:22:29.029Z,11.8
2018-11-13T05:23:41.167Z,11.8
2018-11-13T05:24:53.404Z,11.8
2018-11-13T05:26:05.616Z,11.8
2018-11-13T05:27:17.801Z,11.8
2018-11-13T05:28:29.981Z,11.8
2018-11-13T05:30:54.376Z,11.9
2018-11-13T05:32:06.582Z,11.9
2018-11-13T05:33:18.772Z,11.9
2018-11-13T05:34:30.884Z,11.9
2018-11-13T05:36:55.379Z,11.9
2018-11-13T05:39:19.652Z,11.9
2018-11-13T05:40:31.929Z,11.9
2018-11-13T05:41:44.060Z,11.9
2018-11-13T05:42:56.234Z,11.8
2018-11-13T05:44:08.435Z,11.8
2018-11-13T05:45:20.701Z,11.8
2018-11-13T05:46:32.887Z,11.8
2018-11-13T05:47:45.019Z,11.8
2018-11-13T05:48:57.408Z,11.8
2018-11-13T05:50:09.480Z,11.8
2018-11-13T05:52:33.907Z,11.7
2018-11-13T05:53:45.985Z,11.7
2018-11-13T05:54:58.334Z,11.7
2018-11-13T05:57:22.649Z,11.7
2018-11-13T05:58:34.764Z,11.7
2018-11-13T05:59:46.952Z,11.7
2018-11-13T06:00:59.216Z,11.7
2018-11-13T06:02:11.422Z,11.6
2018-11-13T06:03:23.549Z,11.6
2018-11-13T06:04:35.732Z,11.6
2018-11-13T06:05:48.026Z,11.6
2018-11-13T06:07:00.193Z,11.6
2018-11-13T06:08:12.380Z,11.6
2018-11-13T06:09:24.508Z,11.5
2018-11-13T06:10:36.769Z,11.5
2018-11-13T06:13:01.165Z,11.5
2018-11-13T06:14:13.372Z,11.5
2018-11-13T06:16:37.745Z,11.5
2018-11-13T06:17:49.931Z,11.5
2018-11-13T06:19:02.073Z,11.5
2018-11-13T06:21:26.513Z,11.4
2018-11-13T06:22:38.701Z,11.4
2018-11-13T06:23:50.908Z,11.4
2018-11-13T06:26:15.310Z,11.4
2018-11-13T06:28:39.688Z,11.4
2018-11-13T06:29:51.868Z,11.3
2018-11-13T06:31:03.992Z,11.3
2018-11-13T06:32:16.254Z,11.3
2018-11-13T06:33:28.392Z,11.3
2018-11-13T06:34:40.662Z,11.3
2018-11-13T06:37:05.033Z,11.3
2018-11-13T06:39:29.354Z,11.3
2018-11-13T06:41:53.812Z,11.3
2018-11-13T06:43:06.000Z,11.3
2018-11-13T06:44:18.158Z,11.3
2018-11-13T06:45:30.390Z,11.3
2018-11-13T06:47:54.780Z,11.3
2018-11-13T06:50:19.091Z,11.3
2018-11-13T06:51:31.367Z,11.2
2018-11-13T06:52:43.483Z,11.3
2018-11-13T06:53:55.743Z,11.2
2018-11-13T06:55:07.962Z,11.2
2018-11-13T06:56:20.271Z,11.2
2018-11-13T06:58:44.530Z,11.2
2018-11-13T06:59:56.646Z,11.2
2018-11-13T07:01:08.907Z,11.2
2018-11-13T07:03:33.225Z,11.2
2018-11-13T07:04:45.415Z,11.2
2018-11-13T07:05:59.338Z,11.2
2018-11-13T07:07:09.806Z,11.2
2018-11-13T07:08:22.365Z,11.2
2018-11-13T07:09:34.271Z,11.2
2018-11-13T07:11:58.675Z,11.2
2018-11-13T07:13:10.858Z,11.1
2018-11-13T07:16:47.438Z,11
2018-11-13T07:19:11.744Z,11.1
2018-11-13T07:20:24.016Z,11.1
2018-11-13T07:21:36.132Z,11.1
2018-11-13T07:22:48.396Z,11.1
2018-11-13T07:24:00.585Z,11.1
2018-11-13T07:25:12.797Z,11.2
2018-11-13T07:26:24.906Z,11.2
2018-11-13T07:27:37.118Z,11.2
2018-11-13T07:28:51.168Z,11.2
2018-11-13T07:30:01.496Z,11.2
2018-11-13T07:32:25.884Z,11.2
2018-11-13T07:34:50.349Z,11.2
2018-11-13T07:37:14.657Z,11.2
2018-11-13T07:38:26.868Z,11.2
2018-11-13T07:39:39.121Z,11.2
2018-11-13T07:40:51.347Z,11.2
2018-11-13T07:42:03.438Z,11.2
2018-11-13T07:43:15.642Z,11.2
2018-11-13T07:45:40.019Z,11.3
2018-11-13T07:49:16.617Z,11.3
2018-11-13T07:50:28.877Z,11.2
2018-11-13T07:51:41.086Z,11.2
2018-11-13T07:52:53.191Z,11.2
2018-11-13T07:54:05.395Z,11.2
2018-11-13T07:55:17.712Z,11.2
2018-11-13T07:56:29.782Z,11.2
2018-11-13T07:57:42.046Z,11.1
2018-11-13T07:58:54.269Z,11.1
2018-11-13T08:01:18.648Z,11.1
2018-11-13T08:03:42.986Z,11.1
2018-11-13T08:04:55.219Z,11.2
2018-11-13T08:06:07.422Z,11.2
2018-11-13T08:07:21.037Z,11.2
2018-11-13T08:08:31.811Z,11.2
2018-11-13T08:09:44.017Z,11.2
2018-11-13T08:10:56.234Z,11.2
2018-11-13T08:12:08.330Z,11.2
2018-11-13T08:15:44.973Z,11.2
2018-11-13T08:16:57.114Z,11.2
2018-11-13T08:18:09.363Z,11.2
2018-11-13T08:19:21.589Z,11.2
2018-11-13T08:20:33.759Z,11.3
2018-11-13T08:21:45.883Z,11.3
2018-11-13T08:25:22.464Z,11.3
2018-11-13T08:27:46.955Z,11.3
2018-11-13T08:28:59.053Z,11.3
2018-11-13T08:30:11.246Z,11.3
2018-11-13T08:31:23.521Z,11.3
2018-11-13T08:32:35.726Z,11.3
2018-11-13T08:33:50.659Z,11.3
2018-11-13T08:35:00.042Z,11.3
2018-11-13T08:37:24.490Z,11.3
2018-11-13T08:39:48.881Z,11.3
2018-11-13T08:41:01.023Z,11.3
2018-11-13T08:42:13.234Z,11.3
2018-11-13T08:43:25.402Z,11.2
2018-11-13T08:44:37.590Z,11.3
2018-11-13T08:45:49.791Z,11.3
2018-11-13T08:48:14.187Z,11.2
2018-11-13T08:53:05.948Z,11.2
2018-11-13T08:54:15.239Z,11.3
2018-11-13T08:55:27.359Z,11.3
2018-11-13T08:56:39.666Z,11.3
2018-11-13T08:57:51.832Z,11.3
2018-11-13T08:59:06.015Z,11.3
2018-11-13T09:01:28.556Z,11.3
2018-11-13T09:02:40.616Z,11.3
2018-11-13T09:03:52.796Z,11.3
2018-11-13T09:05:04.983Z,11.3
2018-11-13T09:06:17.208Z,11.3
2018-11-13T09:08:41.502Z,11.4
2018-11-13T09:09:53.859Z,11.4
2018-11-13T09:11:05.889Z,11.4
2018-11-13T09:15:54.751Z,11.3
2018-11-13T09:17:06.865Z,11.3
2018-11-13T09:18:19.168Z,11.3
2018-11-13T09:20:43.529Z,11.3
2018-11-13T09:21:55.735Z,11.3
2018-11-13T09:23:07.884Z,11.3
2018-11-13T09:27:56.920Z,11.3
2018-11-13T09:29:08.900Z,11.3
2018-11-13T09:30:21.135Z,11.3
2018-11-13T09:31:33.439Z,11.3
2018-11-13T09:33:57.673Z,11.3
2018-11-13T09:35:09.886Z,11.4
2018-11-13T09:41:10.894Z,11.3
2018-11-13T09:42:23.044Z,11.3
2018-11-13T09:43:35.187Z,11.2
2018-11-13T09:44:47.369Z,11.3
2018-11-13T09:47:11.832Z,11.3
2018-11-13T09:49:36.232Z,11.3
2018-11-13T09:52:00.614Z,11.4
2018-11-13T09:54:25.000Z,11.4
2018-11-13T09:55:37.116Z,11.4
2018-11-13T09:56:49.410Z,11.4
2018-11-13T09:58:01.580Z,11.4
2018-11-13T10:01:38.093Z,11.4
2018-11-13T10:04:02.490Z,11.4
2018-11-13T10:05:14.772Z,11.4
2018-11-13T10:06:26.947Z,11.4
2018-11-13T10:07:39.077Z,11.4
2018-11-13T10:08:53.692Z,11.4
2018-11-13T10:11:15.656Z,11.5
2018-11-13T10:13:40.120Z,11.5
2018-11-13T10:17:16.712Z,11.5
2018-11-13T10:18:28.831Z,11.5
2018-11-13T10:19:41.101Z,11.5
2018-11-13T10:20:53.291Z,11.5
2018-11-13T10:22:05.424Z,11.5
2018-11-13T10:29:18.589Z,11.5
2018-11-13T10:30:30.878Z,11.4
2018-11-13T10:31:43.008Z,11.5
2018-11-13T10:32:55.251Z,11.5
2018-11-13T10:34:07.448Z,11.5
2018-11-13T10:35:19.636Z,11.5
2018-11-13T10:38:56.244Z,11.5
2018-11-13T10:41:20.554Z,11.6
2018-11-13T10:42:32.813Z,11.5
2018-11-13T10:43:44.940Z,11.5
2018-11-13T10:44:57.173Z,11.5
2018-11-13T10:46:09.446Z,11.5
2018-11-13T10:48:33.778Z,11.5
2018-11-13T10:52:10.418Z,11.5
2018-11-13T10:53:22.576Z,11.5
2018-11-13T10:55:46.955Z,11.5
2018-11-13T10:56:59.083Z,11.6
2018-11-13T10:58:11.345Z,11.6
2018-11-13T10:59:23.547Z,11.6
2018-11-13T11:01:47.937Z,11.6
2018-11-13T11:04:12.380Z,11.6
2018-11-13T11:05:24.546Z,11.6
2018-11-13T11:07:48.966Z,11.7
2018-11-13T11:09:01.109Z,11.6
2018-11-13T11:10:13.245Z,11.6
2018-11-13T11:11:25.502Z,11.6
2018-11-13T11:13:49.893Z,11.7
2018-11-13T11:17:26.480Z,11.8
2018-11-13T11:18:39.026Z,11.8
2018-11-13T11:19:50.860Z,11.8
2018-11-13T11:22:15.253Z,11.8
2018-11-13T11:23:27.465Z,11.9
2018-11-13T11:24:39.600Z,11.9
2018-11-13T11:25:51.770Z,11.9
2018-11-13T11:28:16.235Z,11.9
2018-11-13T11:29:28.383Z,11.9
2018-11-13T11:30:40.630Z,11.9
2018-11-13T11:33:05.037Z,12
2018-11-13T11:34:17.216Z,12
2018-11-13T11:35:29.396Z,12
2018-11-13T11:37:53.796Z,12
2018-11-13T11:39:06.013Z,12
2018-11-13T11:40:18.189Z,12
2018-11-13T11:41:30.393Z,12.1
2018-11-13T11:42:42.572Z,12.1
2018-11-13T11:43:54.806Z,12.2
2018-11-13T11:46:19.162Z,12.2
2018-11-13T11:49:55.742Z,12.3
2018-11-13T11:51:07.868Z,12.3
2018-11-13T11:52:20.134Z,12.3
2018-11-13T11:55:56.654Z,12.5
2018-11-13T11:58:21.155Z,12.5
2018-11-13T12:01:57.711Z,12.4
2018-11-13T12:03:09.926Z,12.4
2018-11-13T12:05:34.245Z,12.4
2018-11-13T12:07:58.611Z,12.3
2018-11-13T12:09:10.882Z,12.3
2018-11-13T12:10:23.087Z,12.3
2018-11-13T12:12:47.469Z,12.3
2018-11-13T12:13:59.595Z,12.3
2018-11-13T12:15:11.859Z,12.3
2018-11-13T12:16:23.985Z,12.3
2018-11-13T12:17:36.287Z,12.3
2018-11-13T12:18:48.390Z,12.2
2018-11-13T12:22:25.033Z,12.2
2018-11-13T12:23:37.234Z,12.2
2018-11-13T12:24:49.357Z,12.2
2018-11-13T12:30:50.406Z,12.3
2018-11-13T12:32:02.916Z,12.3
2018-11-13T12:34:27.040Z,12.4
2018-11-13T12:35:39.189Z,12.4
2018-11-13T12:38:03.499Z,12.4
2018-11-13T12:39:15.780Z,12.4
2018-11-13T12:40:27.978Z,12.4
2018-11-13T12:41:40.245Z,12.5
2018-11-13T12:42:52.360Z,12.5
2018-11-13T12:44:04.567Z,12.5
2018-11-13T12:46:28.977Z,12.5
2018-11-13T12:48:53.348Z,12.6
2018-11-13T12:51:17.652Z,12.7
2018-11-13T12:52:29.937Z,12.7
2018-11-13T12:53:42.143Z,12.7
2018-11-13T12:54:54.246Z,12.7
2018-11-13T12:56:06.436Z,12.8
2018-11-13T12:57:18.723Z,12.8
2018-11-13T12:58:30.825Z,13
2018-11-13T12:59:43.102Z,13.3
2018-11-13T13:00:55.299Z,13.3
2018-11-13T13:03:19.690Z,13.4
2018-11-13T13:05:44.049Z,14.2
2018-11-13T13:06:56.203Z,14.4
2018-11-13T13:08:08.393Z,14.4
2018-11-13T13:10:32.790Z,14.6
2018-11-13T13:11:45.062Z,14.7
2018-11-13T13:12:57.340Z,14.9
2018-11-13T13:14:09.373Z,15.1
2018-11-13T13:15:21.567Z,15.2
2018-11-13T13:18:58.234Z,15.7
2018-11-13T13:20:10.450Z,15.4
2018-11-13T13:21:22.600Z,15.3
2018-11-13T13:22:34.817Z,15.2
2018-11-13T13:24:59.209Z,15.3
2018-11-13T13:26:11.330Z,15.2
2018-11-13T13:27:23.597Z,14.9
2018-11-13T13:28:35.796Z,14.6
2018-11-13T13:29:47.909Z,14.5
2018-11-13T13:32:12.624Z,14.4
2018-11-13T13:34:36.779Z,14.2
2018-11-13T13:35:51.129Z,14.1
2018-11-13T13:37:01.106Z,14.1
2018-11-13T13:38:13.430Z,14.1
2018-11-13T13:39:25.563Z,14.3
2018-11-13T13:40:37.673Z,14.6
2018-11-13T13:41:49.980Z,14.6
2018-11-13T13:43:02.125Z,15.2
2018-11-13T13:44:14.265Z,16
2018-11-13T13:45:26.539Z,16.3
2018-11-13T13:46:38.654Z,16.7
2018-11-13T13:49:03.153Z,16.3
2018-11-13T13:50:15.238Z,16
2018-11-13T13:52:39.628Z,15.5
2018-11-13T13:53:51.834Z,15.3
2018-11-13T13:55:04.132Z,15.2
2018-11-13T13:56:16.301Z,15.1
2018-11-13T13:57:28.500Z,15.2
2018-11-13T13:58:40.688Z,15.8
2018-11-13T14:02:17.282Z,15.3
2018-11-13T14:04:41.675Z,15
2018-11-13T14:07:06.035Z,14.8
2018-11-13T14:08:18.175Z,14.7
2018-11-13T14:10:42.646Z,14.7
2018-11-13T14:13:07.044Z,16
2018-11-13T14:14:19.237Z,16.4
2018-11-13T14:15:31.437Z,16.6
2018-11-13T14:16:43.625Z,17.8
2018-11-13T14:19:08.031Z,19.6
2018-11-13T14:20:21.179Z,20.4
2018-11-13T14:22:44.542Z,21.5
2018-11-13T14:25:09.039Z,22.3
2018-11-13T14:26:21.275Z,22.7
2018-11-13T14:27:33.398Z,23.1
2018-11-13T14:28:45.587Z,23.2
2018-11-13T14:29:57.699Z,23.5
2018-11-13T14:31:09.971Z,23.6
2018-11-13T14:32:22.172Z,23.8
2018-11-13T14:33:34.363Z,23.9
2018-11-13T14:34:46.481Z,24
2018-11-13T14:35:58.675Z,23.7
2018-11-13T14:37:10.875Z,23.5
2018-11-13T14:38:23.149Z,22.4
2018-11-13T14:40:47.534Z,22.6
2018-11-13T14:41:59.651Z,22.9
2018-11-13T14:43:11.863Z,22.8
2018-11-13T14:44:24.122Z,23
2018-11-13T14:45:36.319Z,23.2
2018-11-13T14:46:48.507Z,23.2
2018-11-13T14:48:00.647Z,23.1
2018-11-13T14:49:12.902Z,22.9
2018-11-13T14:50:25.025Z,22.2
2018-11-13T14:51:37.293Z,21.1
2018-11-13T14:52:49.511Z,20.2
2018-11-13T14:54:01.604Z,19.3
2018-11-13T14:55:13.881Z,18.5
2018-11-13T14:56:26.089Z,17.7
2018-11-13T14:57:38.276Z,17
2018-11-13T14:58:50.393Z,16.5
2018-11-13T15:00:02.743Z,15.7
2018-11-13T15:01:14.861Z,15.1
2018-11-13T15:02:27.055Z,14.6
2018-11-13T15:03:39.256Z,14.4
2018-11-13T15:04:51.482Z,14.3
2018-11-13T15:06:03.647Z,14.2
2018-11-13T15:08:28.136Z,13.9
2018-11-13T15:09:40.160Z,13.5
2018-11-13T15:10:52.542Z,13.1
2018-11-13T15:12:04.561Z,13
2018-11-13T15:13:16.740Z,13
2018-11-13T15:14:29.007Z,13.1
2018-11-13T15:16:53.459Z,13.1
2018-11-13T15:18:05.620Z,13.2
2018-11-13T15:19:17.789Z,13.2
2018-11-13T15:20:29.994Z,13.2
2018-11-13T15:21:42.197Z,13.2
2018-11-13T15:24:07.225Z,13.2
2018-11-13T15:27:43.085Z,13.2
2018-11-13T15:28:55.276Z,13.2
2018-11-13T15:30:07.474Z,13.2
2018-11-13T15:31:19.700Z,13.1
2018-11-13T15:32:31.943Z,13.1
2018-11-13T15:33:44.055Z,13
2018-11-13T15:34:56.359Z,13
2018-11-13T15:36:08.531Z,13
2018-11-13T15:37:20.726Z,12.9
2018-11-13T15:38:32.839Z,12.8
2018-11-13T15:40:57.423Z,12.7
2018-11-13T15:42:09.433Z,12.6
2018-11-13T15:43:21.716Z,12.6
2018-11-13T15:44:33.947Z,12.4
2018-11-13T15:45:46.021Z,12.4
2018-11-13T15:46:58.361Z,12.3
2018-11-13T15:48:10.491Z,12.2
2018-11-13T15:49:22.620Z,12
2018-11-13T15:50:34.802Z,12
2018-11-13T15:51:46.997Z,12
2018-11-13T15:52:59.272Z,12
2018-11-13T15:54:11.461Z,11.9
2018-11-13T15:55:23.584Z,11.9
2018-11-13T15:56:35.791Z,11.8
2018-11-13T15:57:48.002Z,11.7
2018-11-13T15:59:00.379Z,11.6
2018-11-13T16:00:12.486Z,11.5
2018-11-13T16:01:24.651Z,11.5
2018-11-13T16:02:36.844Z,11.4
2018-11-13T16:05:01.230Z,11.2
2018-11-13T16:06:13.468Z,11.2
2018-11-13T16:07:25.778Z,11.1
2018-11-13T16:08:37.819Z,11.1
2018-11-13T16:11:02.209Z,10.9
2018-11-13T16:13:26.609Z,10.9
2018-11-13T16:14:38.809Z,10.8
2018-11-13T16:15:50.910Z,10.8
2018-11-13T16:17:03.180Z,10.7
2018-11-13T16:18:16.089Z,10.6
2018-11-13T16:19:27.575Z,10.6
2018-11-13T16:20:39.786Z,10.5
2018-11-13T16:21:51.986Z,10.4
2018-11-13T16:23:04.189Z,10.4
2018-11-13T16:24:16.354Z,10.4
2018-11-13T16:26:40.770Z,10.3
2018-11-13T16:29:05.140Z,10.3
2018-11-13T16:31:29.555Z,10.3
2018-11-13T16:32:41.760Z,10.3
2018-11-13T16:33:53.917Z,10.3
2018-11-13T16:35:06.040Z,10.3
2018-11-13T16:36:18.331Z,10.2
2018-11-13T16:37:30.531Z,10.2
2018-11-13T16:38:42.701Z,10.2
2018-11-13T16:39:54.947Z,10.2
2018-11-13T16:42:19.604Z,10.1
2018-11-13T16:43:31.630Z,10.1
2018-11-13T16:45:55.877Z,10.1
2018-11-13T16:47:08.079Z,10.1
2018-11-13T16:48:20.288Z,10.2
2018-11-13T16:49:32.461Z,10.2
2018-11-13T16:50:44.686Z,10.3
2018-11-13T16:51:56.854Z,10.3
2018-11-13T16:53:09.066Z,10.3
2018-11-13T16:54:21.250Z,10.2
2018-11-13T16:55:33.465Z,10.2
2018-11-13T16:56:45.691Z,10.2
2018-11-13T16:57:57.887Z,10.2
2018-11-13T16:59:10.033Z,10.2
2018-11-13T17:01:34.423Z,10.1
2018-11-13T17:02:46.631Z,10
2018-11-13T17:05:10.994Z,10
2018-11-13T17:06:23.197Z,9.9
2018-11-13T17:08:47.594Z,9.8
2018-11-13T17:09:59.761Z,9.8
2018-11-13T17:11:11.966Z,9.8
2018-11-13T17:12:24.077Z,9.8
2018-11-13T17:13:36.264Z,9.7
2018-11-13T17:16:00.738Z,9.7
2018-11-13T17:19:37.329Z,9.6
2018-11-13T17:20:49.511Z,9.5
2018-11-13T17:22:02.163Z,9.4
2018-11-13T17:23:13.843Z,9.4
2018-11-13T17:25:38.311Z,9.3
2018-11-13T17:26:50.499Z,9.3
2018-11-13T17:28:02.588Z,9.3
2018-11-13T17:30:27.070Z,9.3
2018-11-13T17:32:51.438Z,9.3
2018-11-13T17:34:03.641Z,9.4
2018-11-13T17:35:15.833Z,9.4
2018-11-13T17:36:28.040Z,9.4
2018-11-13T17:38:52.412Z,9.5
2018-11-13T17:40:04.522Z,9.5
2018-11-13T17:41:16.803Z,9.5
2018-11-13T17:42:29.004Z,9.5
2018-11-13T17:44:53.387Z,9.5
2018-11-13T17:46:05.583Z,9.5
2018-11-13T17:47:17.765Z,9.5
2018-11-13T17:48:29.959Z,9.5
2018-11-13T17:49:42.210Z,9.5
2018-11-13T17:50:54.347Z,9.5
2018-11-13T17:53:18.736Z,9.5
2018-11-13T17:55:43.170Z,9.5
2018-11-13T17:56:55.342Z,9.4
2018-11-13T18:00:31.893Z,9.4
2018-11-13T18:01:44.119Z,9.3
2018-11-13T18:02:56.287Z,9.3
2018-11-13T18:04:08.497Z,9.3
2018-11-13T18:06:32.867Z,9.2
2018-11-13T18:08:57.238Z,9.2
2018-11-13T18:10:09.445Z,9.2
2018-11-13T18:11:21.638Z,9.2
2018-11-13T18:12:36.084Z,9.2
2018-11-13T18:14:58.215Z,9.2
2018-11-13T18:17:22.621Z,9.2
2018-11-13T18:19:46.990Z,9.2
2018-11-13T18:20:59.190Z,9.2
2018-11-13T18:22:11.400Z,9.2
2018-11-13T18:23:23.567Z,9.1
2018-11-13T18:24:35.690Z,9.2
2018-11-13T18:25:47.993Z,9.1
2018-11-13T18:28:12.383Z,9.1
2018-11-13T18:29:24.589Z,9.1
2018-11-13T18:30:36.677Z,9.1
2018-11-13T18:31:48.942Z,9.1
2018-11-13T18:33:01.129Z,9
2018-11-13T18:35:25.518Z,9
2018-11-13T18:36:37.630Z,9
2018-11-13T18:37:49.931Z,9
2018-11-13T18:39:02.084Z,9
2018-11-13T18:40:14.195Z,9
2018-11-13T18:41:26.476Z,9
2018-11-13T18:42:38.589Z,8.9
2018-11-13T18:43:50.888Z,8.9
2018-11-13T18:45:03.055Z,8.9
2018-11-13T18:46:15.253Z,8.9
2018-11-13T18:47:27.436Z,8.9
2018-11-13T18:48:39.635Z,8.8
2018-11-13T18:51:04.042Z,8.8
2018-11-13T18:52:16.222Z,8.7
2018-11-13T18:53:28.419Z,8.7
2018-11-13T18:54:40.607Z,8.7
2018-11-13T18:55:52.805Z,8.6
2018-11-13T18:57:04.991Z,8.6
2018-11-13T18:58:17.100Z,8.6
2018-11-13T19:00:41.594Z,8.5
2018-11-13T19:03:05.983Z,8.4
2018-11-13T19:05:30.344Z,8.3
2018-11-13T19:07:54.737Z,8.2
2018-11-13T19:09:06.936Z,8.2
2018-11-13T19:12:43.524Z,8.1
2018-11-13T19:13:55.736Z,8.1
2018-11-13T19:15:07.909Z,8.1
2018-11-13T19:16:20.104Z,8.1
2018-11-13T19:17:32.287Z,8.1
2018-11-13T19:18:44.510Z,8.1
2018-11-13T19:19:56.682Z,8
2018-11-13T19:21:08.788Z,8
2018-11-13T19:22:21.047Z,7.9
2018-11-13T19:24:45.534Z,7.8
2018-11-13T19:25:57.659Z,7.8
2018-11-13T19:27:09.753Z,7.7
2018-11-13T19:28:22.033Z,7.7
2018-11-13T19:29:34.248Z,7.7
2018-11-13T19:31:58.620Z,7.6
2018-11-13T19:33:10.804Z,7.6
2018-11-13T19:34:23.002Z,7.6
2018-11-13T19:35:37.572Z,7.6
2018-11-13T19:37:59.581Z,7.5
2018-11-13T19:41:36.160Z,7.5
2018-11-13T19:42:48.285Z,7.5
2018-11-13T19:45:12.766Z,7.5
2018-11-13T19:47:37.143Z,7.5
2018-11-13T19:48:49.317Z,7.4
2018-11-13T19:50:01.513Z,7.4
2018-11-13T19:51:13.806Z,7.4
2018-11-13T19:52:25.827Z,7.4
2018-11-13T19:53:38.094Z,7.4
2018-11-13T19:54:50.316Z,7.4
2018-11-13T19:56:02.481Z,7.4
2018-11-13T19:57:14.683Z,7.4
2018-11-13T19:58:26.873Z,7.4
2018-11-13T19:59:39.060Z,7.4
2018-11-13T20:00:51.301Z,7.4
2018-11-13T20:03:15.656Z,7.4
2018-11-13T20:04:27.839Z,7.4
2018-11-13T20:05:40.038Z,7.4
2018-11-13T20:06:52.249Z,7.4
2018-11-13T20:09:16.621Z,7.4
2018-11-13T20:10:28.820Z,7.4
2018-11-13T20:11:40.999Z,7.3
2018-11-13T20:12:53.207Z,7.3
2018-11-13T20:14:05.396Z,7.3
2018-11-13T20:15:17.577Z,7.3
2018-11-13T20:17:41.975Z,7.3
2018-11-13T20:20:06.372Z,7.2
2018-11-13T20:22:30.753Z,7.2
2018-11-13T20:24:55.136Z,7.2
2018-11-13T20:27:19.443Z,7.2
2018-11-13T20:28:31.712Z,7.1
2018-11-13T20:29:43.915Z,7.2
2018-11-13T20:30:56.106Z,7.1
2018-11-13T20:32:08.329Z,7.2
2018-11-13T20:33:20.496Z,7.2
2018-11-13T20:34:32.692Z,7.2
2018-11-13T20:35:44.882Z,7.2
2018-11-13T20:36:57.079Z,7.2
2018-11-13T20:38:09.269Z,7.2
2018-11-13T20:40:33.686Z,7.2
2018-11-13T20:41:45.822Z,7.2
2018-11-13T20:44:10.266Z,7.2
2018-11-13T20:45:22.426Z,7.2
2018-11-13T20:46:34.544Z,7.2
2018-11-13T20:47:46.841Z,7.2
2018-11-13T20:48:59.011Z,7.2
2018-11-13T20:50:11.271Z,7.2
2018-11-13T20:51:23.404Z,7.1
2018-11-13T20:52:35.594Z,7.1
2018-11-13T20:53:47.822Z,7.1
2018-11-13T20:56:12.285Z,7
2018-11-13T20:57:24.363Z,7
2018-11-13T20:58:36.486Z,7
2018-11-13T20:59:48.777Z,6.9
2018-11-13T21:01:00.865Z,6.9
2018-11-13T21:02:13.171Z,6.9
2018-11-13T21:03:25.340Z,6.9
2018-11-13T21:04:37.541Z,6.9
2018-11-13T21:07:01.989Z,6.9
2018-11-13T21:08:14.121Z,6.9
2018-11-13T21:09:26.311Z,6.9
2018-11-13T21:10:38.508Z,6.9
2018-11-13T21:11:50.696Z,6.9
2018-11-13T21:13:02.894Z,6.8
2018-11-13T21:14:15.096Z,6.8
2018-11-13T21:15:27.334Z,6.8
2018-11-13T21:17:51.670Z,6.7